Standish, Michigan
Current Conditions -  °F | °C
As of 9:14 PM on Monday 22 Dec 2014 (Local Time) from KIKW Reporting Station
Drizzle Drizzle  
Wind Chill: -2°   Ceiling: 3700
Heat Index:   Visibility: 7mi
Dew Point: -1°   Wind: 7mph
Humidity: 89%   Direction: 80°E
Pressure: 29.91"   Gusts: NA
Location:  43.98°N, 83.96°W
Report Text: KIKW 230214Z AUTO 08006KT 7SM -DZ SCT031 BKN037 OVC050 01/M01 A2991 RMK AO2 T00101007
Loading
Personal Weather Stations






























Interactive Weather Map New forecast layout! Learn more

10-Day Weather Forecast

Advertisements
Track Severe Weather on mobile